createdAt,value
2018-09-19T00:02:32.271Z,79.60
2018-09-19T00:05:03.812Z,79.90
2018-09-19T00:07:35.462Z,79.80
2018-09-19T00:10:16.514Z,79.30
2018-09-19T00:12:49.267Z,79.00
2018-09-19T00:15:29.012Z,78.90
2018-09-19T00:18:09.288Z,79.30
2018-09-19T00:20:49.402Z,79.50
2018-09-19T00:23:20.659Z,80.10
2018-09-19T00:25:51.735Z,80.80
2018-09-19T00:28:24.605Z,80.00
2018-09-19T00:30:58.896Z,80.20
2018-09-19T00:33:30.915Z,80.40
2018-09-19T00:36:01.691Z,80.40
2018-09-19T00:38:33.749Z,80.70
2018-09-19T00:41:06.030Z,80.40
2018-09-19T00:43:36.192Z,80.10
2018-09-19T00:46:08.161Z,80.40
2018-09-19T00:48:49.361Z,80.00
2018-09-19T00:51:21.140Z,80.30
2018-09-19T00:54:00.738Z,80.60
2018-09-19T00:56:40.584Z,80.60
2018-09-19T00:59:16.662Z,80.50
2018-09-19T01:01:49.083Z,80.60
2018-09-19T01:04:20.231Z,80.40
2018-09-19T01:07:00.360Z,80.40
2018-09-19T01:09:33.513Z,80.10
2018-09-19T01:12:04.431Z,80.40
2018-09-19T01:14:44.083Z,80.40
2018-09-19T01:17:23.856Z,80.30
2018-09-19T01:20:03.641Z,79.90
2018-09-19T01:22:35.416Z,80.00
2018-09-19T01:25:06.589Z,80.10
2018-09-19T01:27:47.096Z,79.90
2018-09-19T01:30:27.424Z,79.60
2018-09-19T01:33:05.083Z,79.30
2018-09-19T01:35:36.955Z,79.10
2018-09-19T01:38:17.298Z,78.40
2018-09-19T01:40:57.941Z,79.30
2018-09-19T01:43:29.653Z,79.30
2018-09-19T01:46:02.038Z,79.50
2018-09-19T01:54:29.068Z,79.30
2018-09-19T01:57:00.440Z,79.70
2018-09-19T01:59:33.273Z,79.60
2018-09-19T02:02:13.238Z,79.60
2018-09-19T02:04:53.444Z,79.50
2018-09-19T02:07:33.473Z,79.90
2018-09-19T02:10:09.940Z,80.20
2018-09-19T02:12:43.345Z,80.30
2018-09-19T02:15:14.147Z,80.50
2018-09-19T02:17:47.651Z,80.00
2018-09-19T02:20:18.706Z,80.00
2018-09-19T02:22:49.875Z,80.00
2018-09-19T02:25:21.757Z,80.40
2018-09-19T02:28:01.683Z,80.10
2018-09-19T02:30:41.579Z,80.30
2018-09-19T02:33:17.987Z,80.00
2018-09-19T02:35:50.099Z,80.30
2018-09-19T02:38:22.439Z,80.10
2018-09-19T02:40:53.691Z,80.00
2018-09-19T02:43:26.749Z,80.20
2018-09-19T02:46:06.475Z,80.10
2018-09-19T02:48:47.388Z,80.40
2018-09-19T02:51:19.589Z,80.50
2018-09-19T02:53:50.595Z,80.80
2018-09-19T02:56:23.016Z,80.10
2018-09-19T02:58:54.355Z,79.90
2018-09-19T03:01:25.922Z,79.70
2018-09-19T03:03:57.777Z,80.00
2018-09-19T03:06:29.529Z,79.80
2018-09-19T03:09:00.879Z,80.00
2018-09-19T03:11:40.786Z,79.90
2018-09-19T03:14:13.188Z,80.10
2018-09-19T03:16:45.526Z,80.00
2018-09-19T03:19:18.468Z,80.40
2018-09-19T03:21:50.202Z,80.00
2018-09-19T03:24:30.199Z,80.00
2018-09-19T03:27:02.349Z,80.30
2018-09-19T03:29:36.389Z,80.30
2018-09-19T03:32:08.018Z,80.20
2018-09-19T03:34:39.916Z,79.90
2018-09-19T03:37:14.784Z,79.90
2018-09-19T03:39:46.844Z,80.00
2018-09-19T03:42:26.429Z,80.10
2018-09-19T03:44:57.544Z,80.20
2018-09-19T03:47:28.446Z,80.20
2018-09-19T03:50:08.351Z,80.30
2018-09-19T03:52:40.036Z,80.60
2018-09-19T03:55:11.517Z,80.20
2018-09-19T03:57:42.814Z,80.20
2018-09-19T04:00:14.434Z,80.30
2018-09-19T04:02:48.117Z,80.50
2018-09-19T04:05:25.742Z,80.70
2018-09-19T04:07:57.556Z,80.80
2018-09-19T04:10:29.004Z,80.80
2018-09-19T04:13:08.959Z,80.70
2018-09-19T04:15:40.666Z,80.30
2018-09-19T04:18:13.231Z,80.30
2018-09-19T04:20:52.913Z,80.30
2018-09-19T04:23:25.028Z,80.20
2018-09-19T04:26:04.736Z,80.60
2018-09-19T04:28:44.189Z,80.50
2018-09-19T04:31:16.060Z,80.20
2018-09-19T04:33:47.862Z,79.80
2018-09-19T04:36:19.081Z,80.10
2018-09-19T04:38:50.564Z,80.30
2018-09-19T04:41:26.429Z,79.80
2018-09-19T04:43:57.654Z,79.80
2018-09-19T04:46:29.923Z,79.80
2018-09-19T04:49:02.633Z,79.80
2018-09-19T04:51:33.126Z,80.00
2018-09-19T04:54:05.107Z,79.80
2018-09-19T04:56:36.326Z,80.20
2018-09-19T04:59:10.011Z,80.60
2018-09-19T05:01:41.708Z,80.50
2018-09-19T05:04:13.826Z,80.80
2018-09-19T05:06:44.994Z,80.40
2018-09-19T05:09:17.066Z,80.40
2018-09-19T05:11:48.513Z,80.60
2018-09-19T05:14:28.214Z,80.10
2018-09-19T05:16:59.907Z,80.30
2018-09-19T05:19:41.211Z,80.70
2018-09-19T05:22:12.061Z,80.50
2018-09-19T05:24:43.448Z,80.50
2018-09-19T05:27:16.710Z,80.10
2018-09-19T05:29:50.260Z,80.20
2018-09-19T05:32:29.516Z,80.30
2018-09-19T05:35:01.865Z,80.20
2018-09-19T05:37:33.354Z,80.30
2018-09-19T05:40:05.616Z,80.10
2018-09-19T05:42:46.093Z,80.10
2018-09-19T05:45:17.763Z,80.00
2018-09-19T05:47:57.002Z,80.10
2018-09-19T05:50:28.712Z,80.10
2018-09-19T05:52:59.083Z,80.10
2018-09-19T05:55:31.398Z,80.10
2018-09-19T05:58:01.677Z,79.40
2018-09-19T06:00:32.897Z,80.00
2018-09-19T06:03:04.955Z,80.20
2018-09-19T06:05:35.776Z,80.10
2018-09-19T06:08:06.486Z,80.70
2018-09-19T06:10:38.357Z,81.10
2018-09-19T06:13:10.117Z,80.60
2018-09-19T06:15:42.966Z,80.70
2018-09-19T06:18:14.186Z,80.30
2018-09-19T06:20:45.539Z,80.40
2018-09-19T06:23:16.627Z,80.40
2018-09-19T06:25:48.135Z,80.20
2018-09-19T06:28:19.288Z,80.10
2018-09-19T06:30:50.270Z,80.00
2018-09-19T06:33:22.303Z,80.00
2018-09-19T06:35:53.326Z,80.20
2018-09-19T06:38:24.541Z,79.70
2018-09-19T06:40:56.109Z,80.40
2018-09-19T06:43:26.529Z,81.00
2018-09-19T06:45:57.986Z,80.90
2018-09-19T06:48:30.186Z,80.30
2018-09-19T06:51:02.588Z,80.60
2018-09-19T06:53:33.557Z,79.40
2018-09-19T06:56:04.760Z,79.50
2018-09-19T06:58:36.026Z,80.40
2018-09-19T07:01:07.456Z,81.10
2018-09-19T07:03:39.246Z,80.70
2018-09-19T07:06:10.756Z,80.40
2018-09-19T07:08:41.780Z,80.70
2018-09-19T07:11:13.686Z,81.10
2018-09-19T07:13:44.925Z,81.90
2018-09-19T07:16:16.731Z,81.10
2018-09-19T07:18:49.703Z,81.80
2018-09-19T07:21:21.016Z,81.20
2018-09-19T07:23:51.909Z,80.10
2018-09-19T07:26:27.226Z,79.90
2018-09-19T07:28:57.995Z,79.50
2018-09-19T07:31:30.675Z,80.80
2018-09-19T07:34:02.466Z,79.80
2018-09-19T07:36:33.976Z,78.40
2018-09-19T07:39:09.339Z,79.20
2018-09-19T07:41:42.000Z,79.10
2018-09-19T07:44:13.213Z,78.30
2018-09-19T07:46:44.264Z,77.80
2018-09-19T07:49:15.923Z,76.90
2018-09-19T07:57:30.886Z,78.40
2018-09-19T08:00:10.936Z,78.30
2018-09-19T08:02:51.905Z,79.40
2018-09-19T08:05:31.696Z,80.20
2018-09-19T08:08:11.552Z,78.50
2018-09-19T08:19:16.078Z,78.80
2018-09-19T08:21:53.902Z,79.40
2018-09-19T08:24:33.584Z,79.70
2018-09-19T08:27:13.693Z,80.20
2018-09-19T08:32:36.826Z,78.70
2018-09-19T08:35:16.419Z,79.70
2018-09-19T08:37:56.044Z,80.10
2018-09-19T08:40:36.017Z,80.90
2018-09-19T08:43:14.883Z,80.00
2018-09-19T08:45:53.344Z,78.00
2018-09-19T08:48:33.260Z,77.60
2018-09-19T08:51:13.282Z,77.50
2018-09-19T08:53:53.170Z,77.50
2018-09-19T08:56:32.962Z,76.30
2018-09-19T08:59:12.768Z,75.40
2018-09-19T09:01:52.214Z,75.60
2018-09-19T09:04:31.833Z,76.40
2018-09-19T09:07:09.769Z,74.70
2018-09-19T09:09:49.651Z,73.80
2018-09-19T09:12:30.134Z,73.60
2018-09-19T09:15:07.231Z,73.60
2018-09-19T09:17:46.449Z,73.60
2018-09-19T09:20:24.815Z,71.60
2018-09-19T09:23:04.523Z,71.20
2018-09-19T09:25:38.133Z,70.10
2018-09-19T09:28:15.510Z,69.20
2018-09-19T09:30:55.299Z,69.10
2018-09-19T09:33:35.163Z,67.60
2018-09-19T09:36:15.128Z,68.10
2018-09-19T09:38:54.690Z,65.50
2018-09-19T09:41:34.235Z,65.50
2018-09-19T09:44:13.856Z,66.20
2018-09-19T09:46:53.434Z,65.40
2018-09-19T09:49:31.522Z,63.70
2018-09-19T09:52:10.864Z,63.00
2018-09-19T09:54:50.300Z,61.30
2018-09-19T09:57:27.827Z,60.10
2018-09-19T10:00:06.144Z,59.70
2018-09-19T10:02:45.712Z,59.20
2018-09-19T10:05:25.484Z,57.30
2018-09-19T10:08:05.073Z,58.10
2018-09-19T10:10:45.013Z,59.50
2018-09-19T10:13:24.701Z,59.70
2018-09-19T10:16:04.435Z,58.40
2018-09-19T10:18:44.558Z,56.10
2018-09-19T10:21:24.016Z,55.20
2018-09-19T10:24:03.689Z,55.20
2018-09-19T10:26:43.465Z,56.40
2018-09-19T10:29:23.550Z,55.10
2018-09-19T10:32:02.931Z,55.30
2018-09-19T10:34:42.735Z,54.10
2018-09-19T10:37:22.509Z,54.00
2018-09-19T10:40:00.740Z,53.10
2018-09-19T10:42:39.962Z,53.00
2018-09-19T10:45:19.322Z,54.10
2018-09-19T10:47:59.344Z,54.20
2018-09-19T10:50:40.203Z,53.90
2018-09-19T10:53:19.532Z,53.40
2018-09-19T10:55:59.819Z,53.40
2018-09-19T10:58:39.481Z,53.30
2018-09-19T11:01:20.071Z,54.00
2018-09-19T11:04:00.001Z,53.90
2018-09-19T11:06:40.123Z,54.70
2018-09-19T11:09:20.321Z,54.70
2018-09-19T11:11:59.725Z,53.80
2018-09-19T11:14:39.650Z,54.50
2018-09-19T11:17:19.080Z,54.50
2018-09-19T11:20:00.147Z,56.20
2018-09-19T11:22:40.007Z,53.80
2018-09-19T11:25:19.780Z,53.70
2018-09-19T11:28:00.102Z,53.80
2018-09-19T11:30:40.287Z,55.00
2018-09-19T11:33:18.075Z,54.60
2018-09-19T11:35:57.969Z,54.60
2018-09-19T11:38:38.416Z,54.00
2018-09-19T11:41:18.298Z,53.80
2018-09-19T11:43:58.146Z,55.20
2018-09-19T11:46:37.910Z,53.70
2018-09-19T11:49:17.587Z,54.50
2018-09-19T11:51:57.187Z,52.20
2018-09-19T11:54:36.436Z,52.00
2018-09-19T11:57:15.627Z,52.50
2018-09-19T11:59:55.136Z,52.50
2018-09-19T12:02:35.031Z,52.20
2018-09-19T12:05:16.633Z,52.30
2018-09-19T12:07:56.409Z,52.00
2018-09-19T12:10:36.136Z,51.50
2018-09-19T12:13:16.399Z,52.90
2018-09-19T12:15:56.223Z,54.00
2018-09-19T12:18:33.882Z,53.60
2018-09-19T12:21:13.758Z,54.30
2018-09-19T12:23:50.300Z,53.40
2018-09-19T12:26:29.835Z,51.60
2018-09-19T12:29:10.008Z,52.50
2018-09-19T12:31:50.393Z,52.60
2018-09-19T12:34:30.254Z,51.40
2018-09-19T12:37:01.924Z,51.00
2018-09-19T12:39:41.917Z,52.20
2018-09-19T12:42:22.075Z,50.70
2018-09-19T12:45:02.613Z,50.50
2018-09-19T12:47:42.892Z,49.20
2018-09-19T12:50:23.103Z,50.60
2018-09-19T12:53:01.019Z,50.30
2018-09-19T12:55:40.698Z,49.90
2018-09-19T12:58:19.917Z,49.20
2018-09-19T13:00:59.585Z,49.30
2018-09-19T13:03:36.312Z,49.20
2018-09-19T13:06:16.461Z,50.00
2018-09-19T13:08:56.103Z,52.00
2018-09-19T13:11:37.090Z,50.70
2018-09-19T13:14:17.065Z,49.90
2018-09-19T13:16:56.469Z,50.80
2018-09-19T13:19:36.867Z,50.90
2018-09-19T13:22:17.254Z,50.50
2018-09-19T13:24:57.722Z,51.70
2018-09-19T13:27:38.805Z,51.30
2018-09-19T13:30:18.607Z,51.00
2018-09-19T13:32:58.249Z,49.70
2018-09-19T13:35:37.962Z,51.60
2018-09-19T13:38:16.426Z,50.50
2018-09-19T13:40:56.256Z,50.80
2018-09-19T13:43:36.037Z,51.30
2018-09-19T13:46:16.026Z,51.60
2018-09-19T13:48:59.388Z,51.40
2018-09-19T13:51:39.412Z,51.20
2018-09-19T13:54:19.271Z,52.00
2018-09-19T13:56:51.781Z,52.10
2018-09-19T13:59:31.980Z,52.80
2018-09-19T14:02:10.995Z,51.40
2018-09-19T14:04:49.631Z,53.20
2018-09-19T14:07:29.698Z,52.70
2018-09-19T14:10:09.577Z,53.00
2018-09-19T14:12:49.473Z,52.60
2018-09-19T14:15:29.792Z,52.90
2018-09-19T14:18:10.564Z,52.30
2018-09-19T14:20:50.298Z,53.80
2018-09-19T14:23:31.772Z,52.50
2018-09-19T14:26:04.113Z,54.60
2018-09-19T14:28:42.539Z,54.80
2018-09-19T14:31:21.283Z,54.60
2018-09-19T14:34:01.248Z,53.70
2018-09-19T14:36:41.097Z,54.10
2018-09-19T14:39:20.768Z,53.90
2018-09-19T14:42:00.884Z,54.50
2018-09-19T14:44:40.818Z,53.60
2018-09-19T14:47:20.425Z,54.50
2018-09-19T14:49:52.216Z,54.20
2018-09-19T14:52:26.526Z,55.40
2018-09-19T14:55:06.485Z,56.10
2018-09-19T14:57:46.429Z,53.20
2018-09-19T15:00:26.621Z,52.80
2018-09-19T15:03:06.509Z,53.70
2018-09-19T15:05:46.528Z,54.60
2018-09-19T15:08:26.409Z,53.70
2018-09-19T15:11:06.456Z,53.70
2018-09-19T15:13:46.386Z,53.90
2018-09-19T15:16:25.655Z,54.50
2018-09-19T15:19:07.670Z,54.60
2018-09-19T15:21:48.938Z,55.80
2018-09-19T15:24:28.919Z,56.00
2018-09-19T15:27:07.054Z,55.90
2018-09-19T15:29:47.041Z,55.00
2018-09-19T15:32:27.104Z,54.70
2018-09-19T15:35:07.166Z,54.10
2018-09-19T15:37:46.986Z,54.30
2018-09-19T15:40:21.649Z,55.90
2018-09-19T15:43:02.545Z,56.30
2018-09-19T15:45:43.025Z,56.90
2018-09-19T15:48:24.211Z,57.00
2018-09-19T15:51:04.132Z,57.50
2018-09-19T15:53:44.838Z,57.20
2018-09-19T15:56:26.525Z,58.70
2018-09-19T15:59:09.672Z,58.50
2018-09-19T16:01:40.550Z,57.10
2018-09-19T16:04:11.280Z,56.80
2018-09-19T16:06:42.102Z,57.30
2018-09-19T16:09:13.650Z,58.70
2018-09-19T16:11:44.821Z,60.30
2018-09-19T16:14:15.880Z,61.00
2018-09-19T16:16:46.610Z,61.30
2018-09-19T16:19:18.090Z,60.20
2018-09-19T16:22:32.922Z,60.40
2018-09-19T16:25:08.571Z,59.40
2018-09-19T16:27:54.570Z,60.30
2018-09-19T16:30:36.665Z,61.20
2018-09-19T16:33:17.603Z,62.00
2018-09-19T16:36:01.798Z,62.60
2018-09-19T16:38:41.702Z,63.90
2018-09-19T16:41:21.540Z,64.20
2018-09-19T16:44:01.652Z,64.80
2018-09-19T16:46:51.539Z,65.30
2018-09-19T16:49:32.196Z,64.10
2018-09-19T16:52:25.643Z,63.70
2018-09-19T16:55:05.947Z,63.50
2018-09-19T16:57:45.845Z,63.00
2018-09-19T17:00:18.447Z,63.60
2018-09-19T17:02:49.407Z,63.10
2018-09-19T17:05:20.577Z,64.00
2018-09-19T17:07:50.737Z,63.90
2018-09-19T17:10:21.539Z,64.00
2018-09-19T17:13:01.265Z,63.10
2018-09-19T17:15:32.985Z,62.60
2018-09-19T17:18:03.699Z,63.40
2018-09-19T17:20:36.249Z,64.30
2018-09-19T17:23:06.749Z,64.70
2018-09-19T17:25:37.689Z,65.70
2018-09-19T17:28:08.458Z,66.60
2018-09-19T17:30:39.570Z,67.30
2018-09-19T17:33:10.451Z,67.10
2018-09-19T17:35:41.912Z,67.30
2018-09-19T17:38:13.808Z,67.50
2018-09-19T17:40:45.030Z,67.80
2018-09-19T17:43:15.608Z,68.30
2018-09-19T17:45:46.560Z,68.30
2018-09-19T17:48:18.118Z,69.20
2018-09-19T17:50:50.329Z,69.40
2018-09-19T17:53:21.636Z,69.10
2018-09-19T17:55:53.989Z,69.40
2018-09-19T17:58:25.759Z,69.50
2018-09-19T18:00:57.799Z,70.20
2018-09-19T18:03:30.440Z,70.60
2018-09-19T18:06:02.522Z,71.00
2018-09-19T18:08:33.539Z,71.40
2018-09-19T18:11:08.379Z,71.80
2018-09-19T18:13:39.820Z,72.00
2018-09-19T18:16:14.071Z,71.70
2018-09-19T18:18:45.580Z,72.10
2018-09-19T18:21:20.890Z,71.40
2018-09-19T18:23:53.161Z,71.80
2018-09-19T18:26:23.670Z,72.10
2018-09-19T18:28:55.072Z,71.70
2018-09-19T18:31:28.361Z,71.90
2018-09-19T18:33:58.750Z,72.10
2018-09-19T18:36:31.350Z,72.10
2018-09-19T18:39:01.867Z,71.90
2018-09-19T18:41:42.324Z,71.60
2018-09-19T18:44:13.330Z,72.10
2018-09-19T18:46:46.269Z,72.40
2018-09-19T18:49:17.429Z,71.90
2018-09-19T18:51:49.069Z,72.20
2018-09-19T18:54:22.349Z,72.10
2018-09-19T18:56:53.838Z,71.20
2018-09-19T18:59:24.689Z,71.00
2018-09-19T19:01:55.630Z,71.00
2018-09-19T19:04:27.958Z,71.10
2018-09-19T19:06:59.910Z,70.60
2018-09-19T19:09:30.489Z,70.80
2018-09-19T19:12:01.738Z,71.00
2018-09-19T19:14:33.119Z,70.80
2018-09-19T19:17:13.342Z,71.00
2018-09-19T19:19:45.635Z,71.00
2018-09-19T19:22:25.187Z,71.10
2018-09-19T19:24:56.999Z,71.60
2018-09-19T19:27:29.362Z,72.00
2018-09-19T19:30:03.988Z,72.30
2018-09-19T19:32:35.478Z,72.40
2018-09-19T19:35:06.489Z,72.80
2018-09-19T19:37:38.028Z,72.90
2018-09-19T19:40:08.712Z,73.00
2018-09-19T19:42:40.329Z,73.40
2018-09-19T19:45:13.305Z,73.10
2018-09-19T19:47:47.951Z,73.20
2018-09-19T19:50:21.080Z,73.30
2018-09-19T19:52:55.109Z,73.40
2018-09-19T19:55:31.949Z,73.40
2018-09-19T19:58:06.708Z,73.10
2018-09-19T20:00:39.738Z,72.50
2018-09-19T20:03:15.167Z,72.70
2018-09-19T20:05:45.965Z,72.60
2018-09-19T20:08:17.269Z,72.30
2018-09-19T20:10:48.860Z,72.60
2018-09-19T20:13:20.139Z,72.40
2018-09-19T20:15:51.129Z,72.50
2018-09-19T20:18:22.449Z,72.30
2018-09-19T20:20:54.249Z,72.60
2018-09-19T20:23:25.799Z,72.60
2018-09-19T20:25:57.159Z,72.90
2018-09-19T20:28:28.954Z,73.20
2018-09-19T20:31:00.942Z,73.40
2018-09-19T20:33:31.628Z,73.40
2018-09-19T20:36:03.001Z,73.30
2018-09-19T20:38:34.358Z,73.40
2018-09-19T20:41:06.329Z,73.30
2018-09-19T20:43:38.079Z,73.60
2018-09-19T20:46:09.489Z,73.80
2018-09-19T20:48:40.899Z,73.70
2018-09-19T20:51:12.758Z,73.60
2018-09-19T20:53:45.219Z,73.40
2018-09-19T20:56:16.913Z,73.50
2018-09-19T20:58:48.019Z,73.50
2018-09-19T21:01:19.480Z,74.00
2018-09-19T21:03:50.849Z,74.00
2018-09-19T21:06:22.860Z,73.90
2018-09-19T21:08:54.459Z,74.10
2018-09-19T21:11:27.750Z,74.10
2018-09-19T21:13:59.679Z,74.00
2018-09-19T21:16:31.228Z,74.00
2018-09-19T21:19:02.408Z,74.10
2018-09-19T21:21:34.195Z,73.90
2018-09-19T21:24:05.879Z,74.10
2018-09-19T21:26:38.109Z,74.20
2018-09-19T21:29:08.939Z,74.30
2018-09-19T21:31:40.851Z,74.70
2018-09-19T21:34:12.659Z,74.70
2018-09-19T21:36:44.127Z,74.60
2018-09-19T21:39:18.059Z,74.70
2018-09-19T21:41:51.218Z,74.70
2018-09-19T21:44:22.088Z,74.60
2018-09-19T21:46:55.173Z,74.30
2018-09-19T21:49:37.529Z,74.50
2018-09-19T21:52:17.060Z,74.70
2018-09-19T21:55:03.169Z,73.90
2018-09-19T21:57:41.475Z,73.90
2018-09-19T22:00:19.389Z,73.90
2018-09-19T22:02:51.512Z,73.90
2018-09-19T22:05:30.090Z,73.90
2018-09-19T22:08:07.396Z,74.10
2018-09-19T22:10:43.760Z,74.20
2018-09-19T22:16:07.529Z,74.30
2018-09-19T22:18:43.508Z,74.40
2018-09-19T22:21:19.348Z,74.60
2018-09-19T22:23:50.638Z,74.70
2018-09-19T22:26:29.270Z,74.90
2018-09-19T22:29:11.489Z,74.90
2018-09-19T22:31:51.560Z,74.80
2018-09-19T22:37:58.328Z,74.70
2018-09-19T22:40:34.981Z,74.70
2018-09-19T22:43:18.769Z,75.00
2018-09-19T22:48:40.438Z,75.00
2018-09-19T22:51:11.718Z,75.30
2018-09-19T22:53:44.788Z,75.20
2018-09-19T22:56:26.147Z,75.10
2018-09-19T22:58:58.358Z,74.90
2018-09-19T23:01:29.357Z,74.90
2018-09-19T23:04:00.140Z,75.00
2018-09-19T23:06:31.198Z,75.00
2018-09-19T23:09:02.188Z,74.60
2018-09-19T23:11:33.390Z,74.50
2018-09-19T23:14:03.898Z,74.40
2018-09-19T23:16:35.847Z,74.30
2018-09-19T23:19:06.458Z,74.30
2018-09-19T23:21:38.918Z,74.50
2018-09-19T23:24:10.338Z,74.90
2018-09-19T23:26:40.818Z,75.00
2018-09-19T23:29:12.344Z,74.90
2018-09-19T23:31:45.109Z,75.20
2018-09-19T23:34:17.491Z,75.30
2018-09-19T23:36:57.648Z,75.20
2018-09-19T23:39:28.888Z,75.20
2018-09-19T23:42:00.259Z,75.40
2018-09-19T23:44:32.609Z,74.90
2018-09-19T23:47:05.269Z,75.20
2018-09-19T23:49:36.639Z,74.90
2018-09-19T23:52:08.376Z,75.10
2018-09-19T23:54:39.783Z,75.20
2018-09-19T23:57:11.813Z,75.10
2018-09-19T23:59:53.058Z,75.00
